Aviation Digital Data Service (ADDS)

Output produced by METARs form (2322 UTC 21 September 2021)
found at http://aviationweather.gov/metar/data/
 
KBOS 212254Z 11007KT 10SM FEW032 SCT050 SCT250 20/17 A3033 RMK AO2 SLP270 T02000172
KBOS 212320Z 2200/2306 12007KT P6SM VCSH BKN050 
     FM220700 14006KT P6SM OVC015 
     FM221000 15007KT P6SM OVC008 
     FM221600 14008KT P6SM OVC040 
     FM230100 14008KT P6SM BKN150
       
KLGA 212251Z 13010KT 10SM FEW020 SCT032 SCT055 BKN250 24/17 A3026 RMK AO2 SLP248 T02390167
KLGA 212100Z 2121/2224 VRB04KT P6SM BKN025 BKN040 
     FM212130 12010KT P6SM SCT025 BKN040 
     FM220200 11006KT P6SM FEW025 SCT040 
     FM220800 12008KT P6SM SCT008 BKN015 
     TEMPO 2211/2213 BKN008 BKN015 
     FM221400 13011G18KT P6SM BKN020 
     FM221600 15015G22KT P6SM SCT025 SCT050 BKN250
       
KJFK 212251Z 10010KT 10SM FEW022 SCT041 BKN055 BKN250 22/19 A3028 RMK AO2 SLP253 T02220194
KJFK 211949Z 2120/2224 12010KT P6SM SCT025 BKN035 
     FM220300 12007KT P6SM FEW025 SCT040 
     FM220800 13008KT P6SM SCT008 BKN015 
     TEMPO 2211/2213 BKN008 BKN015 
     FM221400 14012G19KT P6SM BKN020 
     FM221600 15016G23KT P6SM SCT025 SCT050 BKN250
       
KEWR 212251Z 11004KT 10SM FEW018 SCT035 BKN250 24/18 A3026 RMK AO2 SLP247 T02390183 $
KEWR 211949Z 2120/2224 15008KT P6SM SCT025 SCT035 
     FM220200 09005KT P6SM FEW025 SCT040 
     FM220700 10006KT P6SM SCT007 BKN012 
     TEMPO 2210/2213 BKN007 BKN012 
     FM221400 14010G17KT P6SM BKN020 
     FM221600 15014G21KT P6SM SCT025 SCT050 BKN250
       
KPHL 212254Z 13005KT 10SM FEW035 SCT065 BKN260 24/17 A3024 RMK AO2 SLP238 T02390172
KPHL 212059Z 2121/2224 10007KT P6SM SCT030 BKN050 
     FM220000 10005KT P6SM SCT045 
     FM220600 10004KT P6SM BKN020 
     FM220900 12004KT P6SM OVC008 
     FM221300 14009KT P6SM BKN015 
     FM221700 16011G18KT P6SM SCT025 BKN040
       
KBWI 212254Z 10008KT 10SM SCT033 BKN050 BKN075 BKN200 26/18 A3019 RMK AO2 SLP221 T02560183
KBWI 212320Z 2200/2306 12007KT P6SM OVC060 
     FM220600 11006KT P6SM OVC015 
     FM221100 14010KT P6SM OVC008 
     FM221700 15015G23KT 6SM -SHRA OVC025 
     FM230000 14013KT 5SM SHRA OVC010
       
KDCA 212252Z 13006KT 10SM FEW050 OVC075 26/18 A3019 RMK AO2 SLP224 T02560183
KDCA 212320Z 2200/2306 12008KT P6SM OVC060 
     FM220600 12006KT 6SM SHRA OVC015 
     FM221600 15012G22KT 6SM -SHRA OVC030 
     FM222200 14012G24KT 5SM -SHRA BR OVC015 
     FM230000 14011G20KT 6SM -SHRA OVC010
       
KIAD 212252Z 13005KT 10SM FEW040 BKN060 BKN080 BKN200 24/18 A3019 RMK AO2 SLP220 T02440178
KIAD 212320Z 2200/2306 12006KT P6SM OVC040 
     FM220600 13006KT 6SM -SHRA OVC015 
     FM220900 14008KT 5SM -SHRA BR OVC008 
     FM221700 15012KT 6SM -SHRA BR OVC025 
     FM222200 14013KT 4SM SHRA BR OVC008
       
KCLT 212312Z 36004KT 10SM SCT009 BKN028 BKN041 OVC200 23/22 A3008 RMK AO2 T02330217 $
KCLT 212157Z 2122/2224 06006KT P6SM VCSH SCT007 OVC013 
     FM220200 12005KT 4SM BR VCSH OVC004 
     FM220800 16004KT 4SM BR VCSH OVC004 
     FM221500 19007KT P6SM VCSH BKN015 
     FM221900 21009KT 6SM SHRA BR BKN024 
     PROB30 2219/2224 3SM TSRA BR OVC015CB
       
KATL 212252Z 11006KT 10SM FEW020 SCT040 SCT100 BKN200 24/21 A3001 RMK AO2 RAE02 SLP154 CB DSNT SE SW P0000 T02440211
KATL 212145Z 2122/2224 09005KT P6SM VCSH SCT025 BKN050 
     TEMPO 2122/2124 3SM SHRA BKN025 
     FM220300 09004KT P6SM BKN008 
     FM220800 15003KT 5SM BR VCSH BKN004 
     FM221300 22005KT P6SM -SHRA BKN006 
     TEMPO 2214/2217 4SM -TSRA BKN012CB 
     FM221700 32013G22KT P6SM SCT025 
     FM222100 32014KT P6SM SCT100
       
KTPA 212320Z 15004KT 7SM VCTS -RA FEW011 SCT032CB OVC040 26/24 A3002 RMK AO2 LTG DSNT NE AND SE CB ALQDS MOV W P0002 T02560239 $
KTPA 212109Z 2121/2224 29010KT P6SM VCTS SCT030CB BKN050 
     TEMPO 2121/2122 VRB12G20KT 4SM +TSRA BKN030CB 
     FM220000 08005KT P6SM VCSH SCT030 BKN050 
     FM220300 VRB03KT P6SM FEW020 SCT120 BKN250 
     FM221200 VRB03KT P6SM VCSH SCT020 SCT120 BKN250 
     FM221500 22005KT P6SM VCTS SCT025CB SCT120 BKN250 
     FM221800 25007KT P6SM VCTS SCT030CB BKN050
       
KMCO 212253Z 17006KT 10SM -RA FEW015 FEW065 FEW110 SCT190 BKN250 26/23 A3000 RMK AO2 RAB53 SLP158 P0000 T02560233
KMCO 212041Z 2121/2224 15007KT P6SM VCSH FEW015 SCT040 BKN200 
     FM220100 VRB04KT P6SM FEW030 BKN200 
     TEMPO 2209/2212 SCT008 BKN015 BKN040 
     FM221300 20005KT P6SM SCT015 BKN030 
     FM221700 24006KT P6SM VCSH SCT025 SCT050 BKN250
       
KMIA 212253Z 35004KT 10SM FEW020 SCT085 OVC200 28/24 A2999 RMK AO2 LTG DSNT E TSB18E45 SLP156 TS DSIPTD CB DSNT NE-E T02780239 $
KMIA 212107Z 2121/2224 10010KT P6SM VCTS SCT025CB BKN050 
     FM220000 VRB05KT P6SM FEW025 SCT250 
     FM221400 12007KT P6SM SCT025 SCT050 
     FM221700 16010KT P6SM VCTS SCT025CB BKN050
       
KFLL 212310Z 02004KT 10SM VCTS FEW021 BKN130 OVC190 26/24 A3000 RMK AO2 LTG DSNT E AND SE CB DSNT E AND SE MOV NW T02610244
KFLL 212259Z 2123/2224 10010KT P6SM VCTS SCT025CB BKN050 
     TEMPO 2123/2124 VRB15G25KT 3SM TSRA SCT015 BKN025CB 
     FM220000 VRB05KT P6SM FEW025 SCT250 
     FM221400 12007KT P6SM SCT025 SCT050 
     FM221700 16010KT P6SM VCTS SCT025CB BKN050
       
KDTW 212302Z 20005KT 9SM BKN015 OVC050 23/19 A3002 RMK AO2 T02280194
KDTW 212102Z 2121/2224 20010KT 6SM -SHRA SCT015 OVC040 
     TEMPO 2122/2201 3SM RA BR OVC015 
     FM220100 01009KT 3SM RA BR BKN006 OVC015 
     FM220900 36012KT 4SM RA BR OVC008 
     FM221500 01016G26KT 4SM RA BR OVC010 
     FM222100 01017G28KT 6SM -RA BR OVC012
       
KORD 212251Z 01013KT 10SM FEW032 BKN039 OVC140 17/11 A3012 RMK AO2 RAE2158 SLP197 P0000 T01720106
KORD 212057Z 2121/2224 01012G18KT P6SM VCSH SCT030 BKN045 
     FM220400 36013G22KT P6SM VCSH SCT025 BKN050 
     FM221200 01018G28KT P6SM VCSH BKN025 
     FM221900 36022G33KT P6SM SCT035 BKN100
       
KMDW 212253Z 01015G23KT 10SM FEW033 SCT049 BKN120 18/10 A3011 RMK AO2 RAB31E48 SLP190 P0000 T01830100 $
KMDW 212057Z 2121/2224 02012G18KT P6SM VCSH SCT028 BKN045 
     TEMPO 2121/2123 BKN028 
     FM220400 36013G22KT P6SM VCSH SCT025 BKN050 
     FM221200 01018G28KT P6SM VCSH BKN025 
     FM221900 36022G33KT P6SM SCT035 BKN100
       
KMSP 212253Z 34011KT 10SM SCT055 17/06 A3025 RMK AO2 SLP246 T01720056
KMSP 212102Z 2121/2224 32012G20KT P6SM SCT050 
     FM220100 33006KT P6SM SKC 
     FM221600 03006KT P6SM FEW250
       
KMEM 212254Z 30006KT 10SM FEW029 BKN046 BKN230 OVC250 23/21 A3002 RMK AO2 RAE2156 SLP163 P0000 T02330211
KMEM 212252Z 2123/2224 32007KT P6SM VCSH SCT030 OVC045 
     FM220000 36010G16KT P6SM -SHRA VCTS SCT009CB OVC020 
     FM220600 35011G18KT P6SM VCSH BKN040 
     FM220900 34010KT P6SM SKC 
     FM221600 33014G20KT P6SM SKC
       
KDFW 212253Z 36019G26KT 10SM FEW150 BKN300 29/07 A3013 RMK AO2 PK WND 36029/2225 SLP194 T02890072
KDFW 212320Z 2200/2306 36020G30KT P6SM FEW150 SCT250 
     FM220300 01011KT P6SM FEW250
       
KIAH 212253Z 32005KT 10SM FEW060 SCT150 SCT250 34/21 A2998 RMK AO2 SLP149 T03390211
KIAH 212321Z 2200/2306 34007KT P6SM VCTS SCT050CB 
     FM220300 36012KT P6SM SCT100 
     FM221400 02014G22KT P6SM FEW250 
     FM222300 03009KT P6SM SKC
       
KDEN 212253Z 08007G16KT 10SM FEW250 18/M05 A3044 RMK AO2 SLP271 T01781050
KDEN 212044Z 2121/2224 09007KT P6SM FEW080 
     FM220300 14010KT P6SM FEW080 
     FM220700 20009KT P6SM FEW090 
     FM221200 25007KT P6SM SKC 
     FM221600 VRB06KT P6SM SKC 
     FM222000 10007KT P6SM SKC
       
KSLC 212254Z 29005KT 10SM CLR 22/M06 A3041 RMK AO2 SLP268 T02171056
KSLC 212320Z 2200/2306 33006KT P6SM SKC 
     FM220400 15007KT P6SM SKC 
     FM221800 33008KT P6SM FEW200 
     FM230300 15006KT P6SM SCT150
       
KSEA 212253Z 29008KT 10SM FEW250 23/09 A3006 RMK AO2 SLP183 T02330094
KSEA 212100Z 2121/2224 31007KT P6SM FEW250 
     FM220300 03004KT P6SM FEW250 
     FM221300 21005KT P6SM BKN200 
     FM221900 23007KT P6SM BKN070 OVC150
       
KSFO 212256Z 30012KT 10SM FEW200 32/07 A3002 RMK AO2 SLP165 T03170072
KSFO 212103Z 2121/2224 35006KT P6SM FEW045 FEW200 
     FM212200 29012KT 6SM HZ FEW200 
     FM220300 30008KT P6SM FEW200 
     FM221000 VRB05KT P6SM FEW011 
     FM222100 29012KT P6SM FEW200
       
KLAX 212253Z 27011KT 10SM CLR 26/16 A3002 RMK AO2 SLP164 T02560156
KLAX 212054Z 2121/2224 27012KT P6SM SKC 
     FM220400 26006KT P6SM SKC 
     FM220900 VRB03KT 1SM BR OVC005 
     FM221600 26006KT 6SM BR BKN007 
     FM221800 26010KT P6SM SCT008
       
KSAN 212251Z 29010KT 10SM FEW050 27/18 A3002 RMK AO2 SLP166 T02670183
KSAN 212320Z 2200/2306 29009KT P6SM SKC 
     FM220200 VRB04KT P6SM SKC 
     FM220800 VRB04KT P6SM SCT006 
     FM221600 VRB04KT P6SM SKC 
     FM221900 30008KT P6SM SKC 
     FM230200 VRB04KT P6SM SKC
       
KLAS 212256Z 09004KT 10SM CLR 32/M07 A3018 RMK AO2 SLP200 T03171072
KLAS 212013Z 2120/2224 02010KT P6SM SKC 
     FM212100 12005KT P6SM SKC 
     FM220400 24006KT P6SM SKC 
     FM221600 10006KT P6SM SKC
       
KPHX 212251Z 28004KT 10SM CLR 38/03 A3001 RMK AO2 SLP140 T03830033
KPHX 212320Z 2200/2306 27006KT P6SM SKC 
     FM220700 09008KT P6SM SKC 
     TEMPO 2215/2218 10010G18KT 
     FM222200 VRB05KT P6SM SKC
       
KSDF 212314Z 05003KT 10SM SCT022 SCT030 OVC042 26/21 A2999 RMK AO2 LTG DSNT NW T02560206
KSDF 212043Z 2121/2224 16006KT P6SM VCSH BKN025 
     FM220200 30006KT 6SM -SHRA SCT015 BKN025 OVC050 
     TEMPO 2202/2204 2SM TSRA BR OVC012CB 
     FM220400 30010KT 5SM -RA BR OVC007 
     FM220800 32012G21KT 4SM -RA BR OVC006 
     FM221500 31010KT 6SM -RA BR BKN020 OVC035
       
KIND 212254Z 32006KT 10SM -RA FEW026 BKN050 OVC150 22/18 A3000 RMK AO2 RAB43 SLP154 P0000 T02220183
KIND 212320Z 2200/2306 33008KT 6SM SHRA BR VCTS OVC015CB 
     TEMPO 2200/2202 SCT015CB BKN050 
     FM220400 36011G21KT 6SM SHRA BR OVC008 
     FM220600 35015G25KT 5SM SHRA BR OVC012 
     FM221200 35015G23KT 3SM SHRA BR OVC015 
     FM221800 34014G26KT 2SM SHRA BR OVC008 
     FM222100 33014G25KT 4SM SHRA BR OVC015
       
KCVG 212252Z 00000KT 10SM FEW013 BKN022 OVC029 23/19 A3001 RMK AO2 SLP155 T02280194
KCVG 212103Z 2121/2224 17008KT P6SM OVC022 
     FM220100 14004KT P6SM VCSH BKN018 
     FM220300 13005KT 4SM SHRA BR BKN011 
     FM220400 13006KT 5SM SHRA BR BKN009 
     FM220700 31010G16KT 6SM -SHRA BR OVC008 
     FM221800 30012KT P6SM VCSH BKN013